x

Central Aleutians 230nm Sw Dutch Harbor (46072) Wave Buoy

3:50 - Fri 31st Jul 2015 All times are UTC.

  • Sig Wave height 3.6ft
  • Peak Period 15s
  • Average Period 4s
  • Wind
    16mph, 18mph gusts
  • Sea Temp 51°f
  • Air Temp 51°f
  • Sea Pressure 1015.7mb

More Historic Weather Station data

Upgrade to MSW Pro to gain access to the past 30 days of data for over 8000 Wavebouys and Weather Stations around the globe.

Join Pro

Comparision Forecast

View Surf forecast
   
ven. 07/31 3:50 3.5ft 15s 4s 16 18 mph 1015.7mb 51f 51f
2:50 4ft 5s 4s 18 20 mph 1015.6mb 51f 50f
1:50 3.5ft 14s 4s 18 22 mph 1015.6mb 50f 50f
12:50 3.5ft 14s 4s 18 20 mph 1015.7mb 50f 50f
jeu. 07/30 11:50 3.5ft 15s 4s 18 20 mph 1015.9mb 49f 50f
10:50 4ft 15s 4s 13 16 mph 1016.1mb 49f 49f
9:50 3.5ft 15s 4s 16 20 mph 1016mb 49f 50f
8:50 3ft 15s 4s 13 16 mph 1016.1mb 50f 50f
7:50 2.5ft 7s 4s 13 16 mph 1015.9mb 50f 51f
6:50 2.5ft 14s 4s 16 18 mph 1015.7mb 50f 50f
5:50 3ft 14s 5s 11 13 mph 1015.5mb 50f 50f
4:50 2.5ft 13s  -  11 13 mph 1015.5mb 50f 50f
3:50 3ft 15s 5s 11
mph
1015.4mb 50f 50f
2:50 3.5ft 15s 7s 11 13 mph 1015.2mb 50f 49f
1:50 3.5ft 15s 6s 11 13 mph 1015.4mb 50f 50f
12:50 3.5ft 16s 6s 9 11 mph 1015.7mb 50f 50f
11:50 2.5ft 15s 6s 13 16 mph 1015.8mb 50f 50f
10:50 3.5ft 16s 8s 9 11 mph 1015.8mb 50f 50f
9:50 3.5ft 15s 8s 9 11 mph 1015.8mb 50f 50f
8:50 3.5ft 15s 8s 9
mph
1015.9mb 51f 50f
7:50 3.5ft 15s 8s 9
mph
1015.9mb 51f 49f
6:50 3.5ft 16s 9s 9
mph
1015.8mb 51f 49f
5:50 3ft 15s 8s 7
mph
1015.8mb 51f 49f
4:50 3.5ft 16s 9s 7
mph
1015.7mb 52f 49f
3:50 3ft 16s 8s 4 7 mph 1015.7mb 51f 49f
2:50 3.5ft 16s 9s 7
mph
1015.9mb 52f 49f
1:50 3ft 17s 8s 4
mph
1016.4mb 51f 49f
12:50 3ft 16s 8s 7 9 mph 1016.5mb 51f 48f
mer. 07/29 11:50 3ft 16s 8s 2 4 mph 1016.8mb 51f 48f
10:50 3.5ft 16s 8s 4 7 mph 1017.1mb 50f 47f
9:50 3ft 15s 7s 4
mph
1017.1mb 50f 47f
8:50 3.5ft 16s 7s 4 7 mph 1017.1mb 50f 48f
7:50 3.5ft 16s 7s 4 7 mph 1017.1mb 49f 47f
6:50 3.5ft 16s 7s 7 11 mph 1017.3mb 49f 47f
5:50 3.5ft 16s 8s 4 7 mph 1017.2mb 49f 46f
4:50 3.5ft 16s 8s 7 9 mph 1017.1mb 49f 46f
3:50 3.5ft 15s 8s 4 7 mph 1017mb 49f 46f
2:50 3.5ft 15s 8s 4 7 mph 1017.1mb 49f 45f
1:50 3.5ft 16s 7s 4
mph
1017.3mb 49f 46f
12:50 3.5ft 16s 7s 7 9 mph 1017.4mb 49f 47f
11:50 3.5ft 16s 6s 9 11 mph 1017.7mb 49f 47f
10:50 3.5ft 16s 6s 9 11 mph 1018.1mb 49f 47f
9:50 3.5ft 16s 6s 9
mph
1018.1mb 49f 47f
8:50 3.5ft 16s 6s 7 9 mph 1018.2mb 49f 47f
7:50 4ft 16s 6s 9 11 mph 1018.4mb 49f 47f
6:50 3.5ft 7s 6s 9 11 mph 1018.1mb 50f 47f
5:50 3.5ft 16s 6s 11 13 mph 1017.8mb 50f 47f
4:50 3ft 7s 6s 13 16 mph 1017.8mb 50f 47f
3:50 3.5ft 16s 6s 11 13 mph 1018mb 50f 47f
2:50 3.5ft 17s 7s 9 11 mph 1018.2mb 50f 47f
1:50 3.5ft 16s 7s 9 13 mph 1018.5mb 50f 47f
12:50 3.5ft 9s 6s 11 13 mph 1018.5mb 50f 47f
mar. 07/28 11:50 3.5ft 8s 6s 9 13 mph 1018.8mb 50f 47f
10:50 4ft 17s 6s 11 13 mph 1018.6mb 50f 47f
9:50 4.5ft 16s 5s 11
mph
1018.5mb 50f 46f
8:50 4.5ft 8s 5s 13 16 mph 1018.4mb 50f 46f
7:50 5ft 8s 5s 13 16 mph 1018.4mb 49f 45f
6:50 4.5ft 7s 5s 11 13 mph 1018.5mb 49f 45f
5:50 4ft 7s 5s 9 11 mph 1018.5mb 47f 45f
4:50 4ft 16s 6s 9
mph
1018.4mb 47f 46f
3:50 4ft 17s 6s 9 11 mph 1018.3mb 48f 46f
2:50 3.5ft 8s 5s 11 13 mph 1018.3mb 48f 47f
1:50 4.5ft 7s 6s 11 16 mph 1018.1mb 49f 49f
12:50 4.5ft 16s 6s 11
mph
1018.3mb 49f 49f
11:50 4.5ft 8s 6s 11 13 mph 1018.6mb 50f 49f
10:50 4.5ft 8s 5s 9 11 mph 1018.9mb 50f 49f
9:50 4.5ft 8s 5s 11 16 mph 1019.2mb 49f 49f
8:50 4.5ft 8s 5s 13 16 mph 1019.5mb 50f 49f
7:50 4.5ft 5s 5s 13 16 mph 1019.5mb 50f 49f
6:50 5ft 6s 5s 13 16 mph 1019.3mb 50f 48f
5:50 5.5ft 7s 5s 16 18 mph 1019.8mb 49f 48f
4:50 5ft 7s 5s 13 18 mph 1020mb 49f 48f
3:50 5ft 5s 5s 13 18 mph 1019.8mb 49f 48f
2:50 5ft 5s 5s 16 18 mph 1020.2mb 49f 48f
1:50 4.5ft 8s 5s 16 18 mph 1020.5mb 50f 48f
12:50 4.5ft 8s 5s 13 18 mph 1020.7mb 50f 48f
lun. 07/27 11:50 4.5ft 6s 5s 16 18 mph 1021.3mb 51f 48f
10:50 4.5ft 5s 5s 18 20 mph 1021.4mb 50f 48f
9:50 4.5ft 6s 5s 16 20 mph 1021.6mb 50f 48f
8:50 4ft 5s 5s 18 20 mph 1021.6mb 50f 48f
7:50 4.5ft 6s 5s 16 18 mph 1022.1mb 50f 48f
6:50 4.5ft 5s 5s 18 20 mph 1022.4mb 50f 48f
5:50 5ft 5s 5s 20 22 mph 1022.5mb 50f 48f
4:50 5ft 5s 5s 18 20 mph 1022.6mb 50f 48f
3:50 5ft 5s 5s 20 25 mph 1022.6mb 50f 48f
2:50 4.5ft 5s 5s 18 20 mph 1023.1mb 50f 48f
1:50 4.5ft 6s 5s 18 22 mph 1023.6mb 50f 48f
12:50 4.5ft 5s 5s 20 22 mph 1024.1mb 50f 47f
11:50 4.5ft 7s 5s 18 20 mph 1024.4mb 50f 47f
10:50 4.5ft 7s 5s 18 22 mph 1025.1mb 50f 47f
9:50 4ft 7s 5s 16 20 mph 1025mb 50f 47f
8:50 3.5ft 7s 5s 16 20 mph 1025.2mb 50f 47f
7:50 3.5ft 7s 5s 13 18 mph 1025.2mb 50f 47f
6:50 4ft 6s 5s 13 16 mph 1025.1mb 50f 47f
5:50 3.5ft 6s 5s 16 18 mph 1025.1mb 50f 47f